createdAt,value
2023-04-24T00:02:27.694Z,6.23
2023-04-24T00:04:56.091Z,6.57
2023-04-24T00:07:24.411Z,6.57
2023-04-24T00:09:54.072Z,5.37
2023-04-24T00:12:22.724Z,6.13
2023-04-24T00:14:51.038Z,5.93
2023-04-24T00:17:20.943Z,5.73
2023-04-24T00:19:49.227Z,6.00
2023-04-24T00:22:17.468Z,6.37
2023-04-24T00:24:46.124Z,6.73
2023-04-24T00:27:15.784Z,6.33
2023-04-24T00:29:44.575Z,6.63
2023-04-24T00:32:13.070Z,6.80
2023-04-24T00:34:41.874Z,6.33
2023-04-24T00:37:10.030Z,5.83
2023-04-24T00:39:38.604Z,7.10
2023-04-24T00:42:07.661Z,7.13
2023-04-24T00:44:37.457Z,7.87
2023-04-24T00:47:06.356Z,8.03
2023-04-24T00:49:35.195Z,6.93
2023-04-24T00:52:03.430Z,6.83
2023-04-24T00:54:31.708Z,6.83
2023-04-24T00:57:01.625Z,6.67
2023-04-24T00:59:29.840Z,7.73
2023-04-24T01:02:00.340Z,7.07
2023-04-24T01:04:29.434Z,8.10
2023-04-24T01:06:58.974Z,6.53
2023-04-24T01:09:27.724Z,7.23
2023-04-24T01:11:57.763Z,6.77
2023-04-24T01:14:26.028Z,5.83
2023-04-24T01:16:54.263Z,7.00
2023-04-24T01:19:24.372Z,7.43
2023-04-24T01:21:55.509Z,6.07
2023-04-24T01:24:25.576Z,6.63
2023-04-24T01:26:53.919Z,6.70
2023-04-24T01:29:22.109Z,7.10
2023-04-24T01:31:51.035Z,7.17
2023-04-24T01:34:19.576Z,6.37
2023-04-24T01:36:48.404Z,6.00
2023-04-24T01:39:18.080Z,6.60
2023-04-24T01:41:47.724Z,5.67
2023-04-24T01:44:16.406Z,5.33
2023-04-24T01:46:45.549Z,5.93
2023-04-24T01:49:13.942Z,6.63
2023-04-24T01:51:42.272Z,6.37
2023-04-24T01:54:10.811Z,6.23
2023-04-24T01:56:43.531Z,6.60
2023-04-24T01:59:14.762Z,5.03
2023-04-24T02:01:43.381Z,6.00
2023-04-24T02:04:11.498Z,5.03
2023-04-24T02:06:39.946Z,4.63
2023-04-24T02:09:09.062Z,5.70
2023-04-24T02:11:37.197Z,4.93
2023-04-24T02:14:06.056Z,5.53
2023-04-24T02:16:37.113Z,5.57
2023-04-24T02:19:05.617Z,6.03
2023-04-24T02:21:34.348Z,6.30
2023-04-24T02:24:03.059Z,5.50
2023-04-24T02:26:32.810Z,6.47
2023-04-24T02:29:01.094Z,5.97
2023-04-24T02:31:29.835Z,6.97
2023-04-24T02:34:00.210Z,6.67
2023-04-24T02:36:28.868Z,5.47
2023-04-24T02:38:57.529Z,4.87
2023-04-24T02:41:25.851Z,6.37
2023-04-24T02:43:54.465Z,5.30
2023-04-24T02:46:23.206Z,5.80
2023-04-24T02:48:51.454Z,5.50
2023-04-24T02:51:21.468Z,6.33
2023-04-24T02:53:50.230Z,5.90
2023-04-24T02:56:18.510Z,6.87
2023-04-24T02:58:47.127Z,6.50
2023-04-24T03:01:15.897Z,7.40
2023-04-24T03:03:44.273Z,6.20
2023-04-24T03:06:13.011Z,7.70
2023-04-24T03:08:43.134Z,6.63
2023-04-24T03:11:11.322Z,8.00
2023-04-24T03:13:39.854Z,7.23
2023-04-24T03:16:08.194Z,7.70
2023-04-24T03:18:37.737Z,8.13
2023-04-24T03:21:06.552Z,7.80
2023-04-24T03:23:34.826Z,8.03
2023-04-24T03:26:04.431Z,8.17
2023-04-24T03:28:32.649Z,8.63
2023-04-24T03:31:01.067Z,7.60
2023-04-24T03:33:29.227Z,7.80
2023-04-24T03:35:58.051Z,8.03
2023-04-24T03:38:26.756Z,7.47
2023-04-24T03:40:54.861Z,7.40
2023-04-24T03:43:24.944Z,8.03
2023-04-24T03:45:53.565Z,7.17
2023-04-24T03:48:21.790Z,8.10
2023-04-24T03:50:50.669Z,7.90
2023-04-24T03:53:20.761Z,7.43
2023-04-24T03:55:49.100Z,7.67
2023-04-24T03:58:17.722Z,7.73
2023-04-24T04:00:49.156Z,7.40
2023-04-24T04:03:17.543Z,7.10
2023-04-24T04:05:46.549Z,8.03
2023-04-24T04:08:14.761Z,8.13
2023-04-24T04:10:43.579Z,6.80
2023-04-24T04:13:11.724Z,7.17
2023-04-24T04:15:39.907Z,7.97
2023-04-24T04:18:09.661Z,8.20
2023-04-24T04:20:38.291Z,8.20
2023-04-24T04:23:06.489Z,8.10
2023-04-24T04:25:35.416Z,8.83
2023-04-24T04:28:04.236Z,7.93
2023-04-24T04:30:33.251Z,10.63
2023-04-24T04:33:02.302Z,10.43
2023-04-24T04:35:32.407Z,10.17
2023-04-24T04:38:00.897Z,9.43
2023-04-24T04:40:31.183Z,11.33
2023-04-24T04:42:59.461Z,10.77
2023-04-24T04:45:28.654Z,9.57
2023-04-24T04:47:57.817Z,9.13
2023-04-24T04:50:26.630Z,7.53
2023-04-24T04:52:56.541Z,8.10
2023-04-24T04:55:25.284Z,8.10
2023-04-24T04:57:54.059Z,7.97
2023-04-24T05:00:22.334Z,8.27
2023-04-24T05:02:51.034Z,9.47
2023-04-24T05:05:19.827Z,7.73
2023-04-24T05:07:48.055Z,9.60
2023-04-24T05:10:17.684Z,8.33
2023-04-24T05:12:46.521Z,6.60
2023-04-24T05:15:14.776Z,8.70
2023-04-24T05:17:43.126Z,7.43
2023-04-24T05:20:11.932Z,7.23
2023-04-24T05:22:40.119Z,7.97
2023-04-24T05:25:09.504Z,8.13
2023-04-24T05:27:39.103Z,9.10
2023-04-24T05:30:08.706Z,8.93
2023-04-24T05:32:36.953Z,8.30
2023-04-24T05:35:05.598Z,8.57
2023-04-24T05:37:33.844Z,8.90
2023-04-24T05:40:02.219Z,9.80
2023-04-24T05:42:30.940Z,8.93
2023-04-24T05:45:00.502Z,8.80
2023-04-24T05:47:28.767Z,9.63
2023-04-24T05:49:57.391Z,8.67
2023-04-24T05:52:25.613Z,8.00
2023-04-24T05:54:53.791Z,9.03
2023-04-24T05:57:22.692Z,8.57
2023-04-24T05:59:51.036Z,9.10
2023-04-24T06:02:21.089Z,8.40
2023-04-24T06:04:50.015Z,8.03
2023-04-24T06:07:18.411Z,9.20
2023-04-24T06:09:46.597Z,8.87
2023-04-24T06:12:15.328Z,9.87
2023-04-24T06:14:43.590Z,8.67
2023-04-24T06:17:11.843Z,9.33
2023-04-24T06:19:42.199Z,8.87
2023-04-24T06:22:11.106Z,8.03
2023-04-24T06:24:39.420Z,8.97
2023-04-24T06:27:08.782Z,9.30
2023-04-24T06:29:37.526Z,9.33
2023-04-24T06:32:05.808Z,9.13
2023-04-24T06:34:35.538Z,7.73
2023-04-24T06:37:05.843Z,8.27
2023-04-24T06:39:34.067Z,8.43
2023-04-24T06:42:02.751Z,8.57
2023-04-24T06:44:30.974Z,8.50
2023-04-24T06:46:59.108Z,7.67
2023-04-24T06:49:27.930Z,7.50
2023-04-24T06:51:56.136Z,6.87
2023-04-24T06:54:25.607Z,7.27
2023-04-24T06:56:54.521Z,7.10
2023-04-24T06:59:23.299Z,6.93
2023-04-24T07:01:53.959Z,6.53
2023-04-24T07:04:24.102Z,7.03
2023-04-24T07:06:55.392Z,7.33
2023-04-24T07:09:26.879Z,5.97
2023-04-24T07:11:57.411Z,6.23
2023-04-24T07:14:25.672Z,5.53
2023-04-24T07:16:53.929Z,5.90
2023-04-24T07:19:22.082Z,5.77
2023-04-24T07:21:50.718Z,5.87
2023-04-24T07:24:20.392Z,5.73
2023-04-24T07:26:53.122Z,5.27
2023-04-24T07:29:22.069Z,4.60
2023-04-24T07:31:50.361Z,5.10
2023-04-24T07:34:18.704Z,4.70
2023-04-24T07:36:47.291Z,4.57
2023-04-24T07:39:15.471Z,5.10
2023-04-24T07:41:44.066Z,5.60
2023-04-24T07:44:14.039Z,4.97
2023-04-24T07:46:42.781Z,5.03
2023-04-24T07:49:13.441Z,4.97
2023-04-24T07:51:42.780Z,4.33
2023-04-24T07:54:11.305Z,5.03
2023-04-24T07:56:40.430Z,4.97
2023-04-24T07:59:08.916Z,4.43
2023-04-24T08:01:38.623Z,5.23
2023-04-24T08:04:07.294Z,4.70
2023-04-24T08:06:36.301Z,4.50
2023-04-24T08:09:04.918Z,4.53
2023-04-24T08:11:33.857Z,4.20
2023-04-24T08:14:02.555Z,4.67
2023-04-24T08:16:31.006Z,4.30
2023-04-24T08:19:00.954Z,4.20
2023-04-24T08:21:29.269Z,4.37
2023-04-24T08:23:57.373Z,3.70
2023-04-24T08:26:25.768Z,4.33
2023-04-24T08:28:54.406Z,4.17
2023-04-24T08:31:23.774Z,4.00
2023-04-24T08:33:52.497Z,3.70
2023-04-24T08:36:23.792Z,4.23
2023-04-24T08:38:55.192Z,3.87
2023-04-24T08:41:25.328Z,3.97
2023-04-24T08:43:55.538Z,3.70
2023-04-24T08:46:24.840Z,4.00
2023-04-24T08:48:54.285Z,3.97
2023-04-24T08:51:24.844Z,4.00
2023-04-24T08:53:55.824Z,3.93
2023-04-24T08:56:25.248Z,4.23
2023-04-24T08:58:54.906Z,3.27
2023-04-24T09:01:23.237Z,3.50
2023-04-24T09:03:51.906Z,3.50
2023-04-24T09:06:23.645Z,3.70
2023-04-24T09:08:55.247Z,3.40
2023-04-24T09:11:25.422Z,3.53
2023-04-24T09:13:53.828Z,3.43
2023-04-24T09:16:24.263Z,3.40
2023-04-24T09:18:52.691Z,3.33
2023-04-24T09:21:24.891Z,3.13
2023-04-24T09:24:04.585Z,2.63
2023-04-24T09:26:36.516Z,2.70
2023-04-24T09:29:06.123Z,2.40
2023-04-24T09:31:34.332Z,5.17
2023-04-24T09:34:05.771Z,6.37
2023-04-24T09:36:39.257Z,5.40
2023-04-24T09:39:09.244Z,4.40
2023-04-24T09:41:37.920Z,4.17
2023-04-24T09:44:15.713Z,4.60
2023-04-24T09:46:45.199Z,3.50
2023-04-24T09:49:16.483Z,4.93
2023-04-24T09:51:46.124Z,4.93
2023-04-24T09:54:18.257Z,4.40
2023-04-24T09:56:47.395Z,4.80
2023-04-24T09:59:16.286Z,4.00
2023-04-24T10:01:45.749Z,3.30
2023-04-24T10:04:21.313Z,3.67
2023-04-24T10:06:52.082Z,4.17
2023-04-24T10:09:21.781Z,3.43
2023-04-24T10:11:51.765Z,3.47
2023-04-24T10:14:22.021Z,3.47
2023-04-24T10:16:51.403Z,3.33
2023-04-24T10:19:21.179Z,3.33
2023-04-24T10:21:51.771Z,3.30
2023-04-24T10:24:22.088Z,3.50
2023-04-24T10:26:50.403Z,3.60
2023-04-24T10:29:22.602Z,3.20
2023-04-24T10:31:50.823Z,3.90
2023-04-24T10:34:22.161Z,3.07
2023-04-24T10:36:56.473Z,3.70
2023-04-24T10:39:27.314Z,3.30
2023-04-24T10:41:58.508Z,3.30
2023-04-24T10:44:27.780Z,3.67
2023-04-24T10:46:58.116Z,4.03
2023-04-24T10:49:35.920Z,3.90
2023-04-24T10:52:07.097Z,4.37
2023-04-24T10:54:39.073Z,3.90
2023-04-24T10:57:31.715Z,4.03
2023-04-24T11:00:21.221Z,3.87
2023-04-24T11:02:51.912Z,4.00
2023-04-24T11:05:21.508Z,4.07
2023-04-24T11:08:17.293Z,4.70
2023-04-24T11:10:47.839Z,4.70
2023-04-24T11:13:18.324Z,5.40
2023-04-24T11:15:46.620Z,4.50
2023-04-24T11:18:17.860Z,3.87
2023-04-24T11:20:46.455Z,4.17
2023-04-24T11:23:17.048Z,4.50
2023-04-24T11:25:45.393Z,4.50
2023-04-24T11:28:18.579Z,4.13
2023-04-24T11:30:46.808Z,3.03
2023-04-24T11:33:22.879Z,2.77
2023-04-24T11:35:53.344Z,3.00
2023-04-24T11:38:25.017Z,3.70
2023-04-24T11:40:54.276Z,3.00
2023-04-24T11:43:23.223Z,2.80
2023-04-24T11:45:52.371Z,2.70
2023-04-24T11:48:23.625Z,2.40
2023-04-24T11:50:52.592Z,3.10
2023-04-24T11:53:23.164Z,3.00
2023-04-24T11:55:51.379Z,2.50
2023-04-24T11:58:24.049Z,3.50
2023-04-24T12:00:59.346Z,3.00
2023-04-24T12:03:28.203Z,8.53
2023-04-24T12:06:09.514Z,4.50
2023-04-24T12:08:39.956Z,3.50
2023-04-24T12:11:09.658Z,6.87
2023-04-24T12:13:38.344Z,7.80
2023-04-24T12:16:07.204Z,7.43
2023-04-24T12:18:35.559Z,5.60
2023-04-24T12:21:19.143Z,3.93
2023-04-24T12:23:51.843Z,3.73
2023-04-24T12:26:21.134Z,3.20
2023-04-24T12:28:51.189Z,3.60
2023-04-24T12:31:19.700Z,4.00
2023-04-24T12:33:48.243Z,4.13
2023-04-24T12:36:16.534Z,3.37
2023-04-24T12:38:47.626Z,3.30
2023-04-24T12:41:17.574Z,3.40
2023-04-24T12:43:56.524Z,4.83
2023-04-24T12:46:25.457Z,3.60
2023-04-24T12:48:54.222Z,3.93
2023-04-24T12:51:22.450Z,3.53
2023-04-24T12:53:50.843Z,4.30
2023-04-24T12:56:20.422Z,3.87
2023-04-24T12:58:48.676Z,3.73
2023-04-24T13:01:17.094Z,15.33
2023-04-24T13:03:46.369Z,7.83
2023-04-24T13:06:14.834Z,22.63
2023-04-24T13:08:43.432Z,6.33
2023-04-24T13:11:11.758Z,4.37
2023-04-24T13:13:41.776Z,4.20
2023-04-24T13:16:10.287Z,17.93
2023-04-24T13:18:38.635Z,9.63
2023-04-24T13:21:07.022Z,53.70
2023-04-24T13:23:35.712Z,106.70
2023-04-24T13:26:04.642Z,45.77
2023-04-24T13:28:32.814Z,39.90
2023-04-24T13:31:02.877Z,9.03
2023-04-24T13:33:31.569Z,4.70
2023-04-24T13:35:59.855Z,4.60
2023-04-24T13:38:28.129Z,4.10
2023-04-24T13:40:56.366Z,4.20
2023-04-24T13:43:24.609Z,4.20
2023-04-24T13:45:52.968Z,4.00
2023-04-24T13:48:23.046Z,3.90
2023-04-24T13:50:51.771Z,3.70
2023-04-24T13:53:20.005Z,4.07
2023-04-24T13:55:48.276Z,3.63
2023-04-24T13:58:16.476Z,4.17
2023-04-24T14:00:44.900Z,3.87
2023-04-24T14:03:13.395Z,3.60
2023-04-24T14:05:43.195Z,4.10
2023-04-24T14:08:11.335Z,4.40
2023-04-24T14:10:40.048Z,4.47
2023-04-24T14:13:08.326Z,3.47
2023-04-24T14:15:38.534Z,4.10
2023-04-24T14:18:07.488Z,4.70
2023-04-24T14:20:35.906Z,3.53
2023-04-24T14:23:06.013Z,3.60
2023-04-24T14:25:34.779Z,4.07
2023-04-24T14:28:02.991Z,3.50
2023-04-24T14:30:32.128Z,4.40
2023-04-24T14:33:00.953Z,3.90
2023-04-24T14:35:31.353Z,3.50
2023-04-24T14:38:00.132Z,3.63
2023-04-24T14:40:56.339Z,3.90
2023-04-24T14:43:19.484Z,4.23
2023-04-24T14:45:47.850Z,3.47
2023-04-24T14:48:17.470Z,3.90
2023-04-24T14:50:46.367Z,3.97
2023-04-24T14:53:15.236Z,4.10
2023-04-24T14:55:44.741Z,3.97
2023-04-24T14:58:13.467Z,3.87
2023-04-24T15:00:42.022Z,3.57
2023-04-24T15:03:10.334Z,3.57
2023-04-24T15:05:39.317Z,3.90
2023-04-24T15:08:07.585Z,4.30
2023-04-24T15:10:36.207Z,4.37
2023-04-24T15:13:06.463Z,4.70
2023-04-24T15:15:34.588Z,4.33
2023-04-24T15:18:02.754Z,4.27
2023-04-24T15:20:31.375Z,4.27
2023-04-24T15:23:00.856Z,4.33
2023-04-24T15:25:29.141Z,3.97
2023-04-24T15:27:58.923Z,4.80
2023-04-24T15:30:28.807Z,4.43
2023-04-24T15:32:56.959Z,4.30
2023-04-24T15:35:25.835Z,4.80
2023-04-24T15:37:53.944Z,4.20
2023-04-24T15:40:22.091Z,3.80
2023-04-24T15:42:50.804Z,3.73
2023-04-24T15:45:18.956Z,3.90
2023-04-24T15:47:48.491Z,3.77
2023-04-24T15:50:17.733Z,4.20
2023-04-24T15:52:46.036Z,3.70
2023-04-24T15:55:14.524Z,3.97
2023-04-24T15:57:43.122Z,4.90
2023-04-24T16:00:12.252Z,4.57
2023-04-24T16:02:41.097Z,4.50
2023-04-24T16:05:11.791Z,4.50
2023-04-24T16:07:41.361Z,4.00
2023-04-24T16:10:10.401Z,4.20
2023-04-24T16:12:39.015Z,4.10
2023-04-24T16:15:08.424Z,4.30
2023-04-24T16:17:36.751Z,3.10
2023-04-24T16:20:05.720Z,3.90
2023-04-24T16:22:35.816Z,4.10
2023-04-24T16:25:04.096Z,3.93
2023-04-24T16:27:32.666Z,3.80
2023-04-24T16:30:01.838Z,3.90
2023-04-24T16:32:30.239Z,4.20
2023-04-24T16:34:58.754Z,4.40
2023-04-24T16:37:27.354Z,4.37
2023-04-24T16:39:57.312Z,3.70
2023-04-24T16:42:25.553Z,3.57
2023-04-24T16:44:53.852Z,4.60
2023-04-24T16:47:22.577Z,4.70
2023-04-24T16:49:51.098Z,4.00
2023-04-24T16:52:19.256Z,4.57
2023-04-24T16:54:48.143Z,3.90
2023-04-24T16:57:18.285Z,3.90
2023-04-24T16:59:46.472Z,4.00
2023-04-24T17:02:14.803Z,4.37
2023-04-24T17:04:43.474Z,4.73
2023-04-24T17:07:11.670Z,4.47
2023-04-24T17:09:40.387Z,4.27
2023-04-24T17:12:08.633Z,4.20
2023-04-24T17:14:38.258Z,4.20
2023-04-24T17:17:06.977Z,3.93
2023-04-24T17:19:35.473Z,4.20
2023-04-24T17:22:06.232Z,4.63
2023-04-24T17:24:35.349Z,4.40
2023-04-24T17:27:13.786Z,4.57
2023-04-24T17:29:44.926Z,4.00
2023-04-24T17:32:13.681Z,4.27
2023-04-24T17:34:41.943Z,4.13
2023-04-24T17:37:10.594Z,3.93
2023-04-24T17:39:39.106Z,4.20
2023-04-24T17:42:07.714Z,4.50
2023-04-24T17:44:36.382Z,3.90
2023-04-24T17:47:06.429Z,5.20
2023-04-24T17:49:34.615Z,4.07
2023-04-24T17:52:03.183Z,4.47
2023-04-24T17:54:31.297Z,4.80
2023-04-24T17:56:59.969Z,5.37
2023-04-24T17:59:28.161Z,4.80
2023-04-24T18:01:57.813Z,4.40
2023-04-24T18:04:27.910Z,4.80
2023-04-24T18:06:56.022Z,6.27
2023-04-24T18:09:24.542Z,4.93
2023-04-24T18:11:52.961Z,5.43
2023-04-24T18:14:21.193Z,5.23
2023-04-24T18:16:49.397Z,6.03
2023-04-24T18:19:18.162Z,5.67
2023-04-24T18:21:47.822Z,4.87
2023-04-24T18:24:16.143Z,5.33
2023-04-24T18:26:45.278Z,5.17
2023-04-24T18:29:14.065Z,5.17
2023-04-24T18:31:42.718Z,4.83
2023-04-24T18:34:13.795Z,5.67
2023-04-24T18:36:42.345Z,5.23
2023-04-24T18:39:11.884Z,5.10
2023-04-24T18:41:40.149Z,5.93
2023-04-24T18:44:09.221Z,4.80
2023-04-24T18:46:41.643Z,5.53
2023-04-24T18:49:09.856Z,4.57
2023-04-24T18:51:52.508Z,5.20
2023-04-24T18:54:23.822Z,5.90
2023-04-24T18:56:52.578Z,5.37
2023-04-24T18:59:21.261Z,5.13
2023-04-24T19:01:50.093Z,5.37
2023-04-24T19:04:20.931Z,5.57
2023-04-24T19:06:49.283Z,5.30
2023-04-24T19:09:17.953Z,5.57
2023-04-24T19:11:47.675Z,5.37
2023-04-24T19:14:16.253Z,5.30
2023-04-24T19:16:44.998Z,5.13
2023-04-24T19:19:13.569Z,5.50
2023-04-24T19:21:41.779Z,5.10
2023-04-24T19:24:11.195Z,5.30
2023-04-24T19:26:39.754Z,5.13
2023-04-24T19:29:09.282Z,5.13
2023-04-24T19:31:37.565Z,4.80
2023-04-24T19:34:06.639Z,5.37
2023-04-24T19:36:34.931Z,5.60
2023-04-24T19:39:03.384Z,5.33
2023-04-24T19:41:32.062Z,6.00
2023-04-24T19:44:00.235Z,5.03
2023-04-24T19:46:30.541Z,5.43
2023-04-24T19:48:58.891Z,5.40
2023-04-24T19:51:28.005Z,4.83
2023-04-24T19:53:56.449Z,5.00
2023-04-24T19:56:24.775Z,4.90
2023-04-24T19:58:52.922Z,4.97
2023-04-24T20:01:21.112Z,5.50
2023-04-24T20:03:51.579Z,5.57
2023-04-24T20:06:19.877Z,5.67
2023-04-24T20:08:48.279Z,5.43
2023-04-24T20:11:16.766Z,6.40
2023-04-24T20:13:45.001Z,5.03
2023-04-24T20:16:13.312Z,5.93
2023-04-24T20:18:42.047Z,5.77
2023-04-24T20:21:12.019Z,5.33
2023-04-24T20:23:40.722Z,4.83
2023-04-24T20:26:10.159Z,5.57
2023-04-24T20:28:38.551Z,5.87
2023-04-24T20:31:06.801Z,4.47
2023-04-24T20:33:37.950Z,5.80
2023-04-24T20:36:06.878Z,5.77
2023-04-24T20:38:36.937Z,5.50
2023-04-24T20:41:05.491Z,6.20
2023-04-24T20:43:33.687Z,5.33
2023-04-24T20:46:02.027Z,5.83
2023-04-24T20:48:30.214Z,5.87
2023-04-24T20:50:59.044Z,5.50
2023-04-24T20:53:27.808Z,5.33
2023-04-24T20:55:57.318Z,5.40
2023-04-24T20:58:25.411Z,5.37
2023-04-24T21:00:53.865Z,6.20
2023-04-24T21:03:22.255Z,5.27
2023-04-24T21:05:50.747Z,5.00
2023-04-24T21:08:19.467Z,5.37
2023-04-24T21:10:47.613Z,5.50
2023-04-24T21:13:17.228Z,4.83
2023-04-24T21:15:46.020Z,4.30
2023-04-24T21:18:14.218Z,4.50
2023-04-24T21:20:42.429Z,4.00
2023-04-24T21:23:11.286Z,4.07
2023-04-24T21:25:39.937Z,3.57
2023-04-24T21:28:08.119Z,4.07
2023-04-24T21:30:39.000Z,4.30
2023-04-24T21:33:07.369Z,3.47
2023-04-24T21:35:36.191Z,3.90
2023-04-24T21:38:04.456Z,3.60
2023-04-24T21:40:32.696Z,3.67
2023-04-24T21:43:01.030Z,3.60
2023-04-24T21:45:29.885Z,4.10
2023-04-24T21:48:01.650Z,3.33
2023-04-24T21:50:30.472Z,3.17
2023-04-24T21:52:58.624Z,3.77
2023-04-24T21:55:26.992Z,4.13
2023-04-24T21:57:56.440Z,4.30
2023-04-24T22:00:24.821Z,4.00
2023-04-24T22:02:53.084Z,3.87
2023-04-24T22:05:23.256Z,4.10
2023-04-24T22:07:51.903Z,4.43
2023-04-24T22:10:20.129Z,4.27
2023-04-24T22:12:48.583Z,4.40
2023-04-24T22:15:16.838Z,4.23
2023-04-24T22:17:44.968Z,4.70
2023-04-24T22:20:14.121Z,4.27
2023-04-24T22:22:43.780Z,4.73
2023-04-24T22:25:12.079Z,4.87
2023-04-24T22:27:40.940Z,5.50
2023-04-24T22:30:10.477Z,4.13
2023-04-24T22:32:38.808Z,4.80
2023-04-24T22:35:09.257Z,4.70
2023-04-24T22:37:37.438Z,4.30
2023-04-24T22:40:08.671Z,4.33
2023-04-24T22:42:37.226Z,4.50
2023-04-24T22:45:06.034Z,4.90
2023-04-24T22:47:34.798Z,4.70
2023-04-24T22:50:03.500Z,4.93
2023-04-24T22:52:32.506Z,4.60
2023-04-24T22:55:00.992Z,4.40
2023-04-24T22:57:30.915Z,4.47
2023-04-24T22:59:59.035Z,4.07
2023-04-24T23:02:28.724Z,4.40
2023-04-24T23:04:57.290Z,4.27
2023-04-24T23:07:25.566Z,4.20
2023-04-24T23:09:54.369Z,3.87
2023-04-24T23:12:22.550Z,4.07
2023-04-24T23:14:52.162Z,4.60
2023-04-24T23:17:20.485Z,4.97
2023-04-24T23:19:49.192Z,4.07
2023-04-24T23:22:17.476Z,4.17
2023-04-24T23:24:46.194Z,4.50
2023-04-24T23:27:14.977Z,3.90
2023-04-24T23:29:43.192Z,4.23
2023-04-24T23:32:13.301Z,4.97
2023-04-24T23:34:41.927Z,4.33
2023-04-24T23:37:10.201Z,4.83
2023-04-24T23:39:38.574Z,4.60
2023-04-24T23:42:08.371Z,4.27
2023-04-24T23:44:36.487Z,4.70
2023-04-24T23:47:04.859Z,4.17
2023-04-24T23:49:34.445Z,5.30
2023-04-24T23:52:03.190Z,5.07
2023-04-24T23:54:31.534Z,4.53
2023-04-24T23:57:00.010Z,4.30
2023-04-24T23:59:29.351Z,4.80
